Terminal Aerodrome Forecast
Issued by NWS

Home | Current Version | Previous Version | Text Only | Print | Product List | Glossary On
Versions: 1 2 3 4 5 6 7 8 9 10 11 12 13 14
765
FTUS46 KSGX 281721
TAFONT
TAF
KONT 281721Z 2818/2924 VRB06KT P6SM SKC
     FM282100 25011KT P6SM SKC
     FM290400 VRB04KT P6SM SKC
     FM292100 25011KT P6SM FEW200=

USA.gov is the U.S. government's official web portal to all federal, state and local government web resources and services.